Main page
METAR-TAF:

METAR-TAF

Airports :

DeKalb Taylor Municipal Airport

DeKalb, Illinois, United States

latitude: 41-55-55N, longitude: 088-42-30W, elevation: 915 ft

Current weather observation

The report was made 24 minutes ago, at 18:15 UTC
Wind 5 mph from the North with gusts up to 16 mph
Temperature 48°F
Humidity 40%
Pressure 30.27 in. Hg
Visibility: 10 miles
Clear sky

METAR: KDKB 241815Z AUTO 35004G14KT 10SM CLR 09/M04 A3027 RMK AO2 T00931036

Time: 13:39 (18:39 UTC)


TAF: missing

Weather observations and forecasts of more than 4000 airports (METAR and TAF reports).

The available stations are represented by yellow and red dots on the map.

Hover mouse over dot to see the name of the station.

Then click to see weather observations and forecasts.

To change the map : click on the green buttons with a black cross to zoom in, on the green button with a dash to zoom out, or on the green arrows for adjacent maps.


METAR-TAF: